Time;durP1;ratioP1;P1;durP2;ratioP2;P2;SDS_P1;SDS_P2;PMS_P1;PMS_P2;Temp;Humidity;BMP_temperature;BMP_pressure;BME280_temperature;BME280_humidity;BME280_pressure;Samples;Min_cycle;Max_cycle;Signal;HPM_P1;HPM_P2
2023/12/28 00:00:07;;;;;;;;;;;;;;;9.06;89.43;100802.22;5077722;28;20001;-80
2023/12/28 00:09:22;;;;;;;;;;;;;;;9.05;90.61;100824.00;5054001;28;20406;-71
2023/12/28 00:28:05;;;;;;;;;;;;;;;8.77;94.16;100840.69;5071387;28;19935;-71
2023/12/28 00:42:42;;;;;;;;;;;;;;;8.76;94.55;100853.75;5079356;28;20126;-79
2023/12/28 01:00:36;;;;;;;;;;;;;;;8.73;96.70;100867.69;5064087;28;19951;-72
2023/12/28 01:09:20;;;;;;;;;;;;;;;8.78;96.57;100873.78;5050513;28;20011;-80
2023/12/28 01:30:03;;;;;;;;;;;;;;;8.98;98.10;100885.91;5058222;28;19927;-80
2023/12/28 01:38:34;;;;;;;;;;;;;;;9.11;97.86;100894.56;5057256;28;19983;-80
2023/12/28 02:09:11;;;;;;;;;;;;;;;8.87;99.73;100913.81;5054044;28;20272;-72
2023/12/28 02:28:22;;;;;;;;;;;;;;;8.67;100.00;100906.91;5072071;28;19963;-80
2023/12/28 02:39:57;;;;;;;;;;;;;;;8.71;100.00;100899.94;5059364;28;19974;-80
2023/12/28 03:01:01;;;;;;;;;;;;;;;8.82;100.00;100882.44;5069640;28;19927;-73
2023/12/28 03:09:34;;;;;;;;;;;;;;;8.76;100.00;100879.88;5060600;28;20314;-72
2023/12/28 03:40:26;;;;;;;;;;;;;;;8.98;100.00;100904.19;5066014;28;20391;-71
2023/12/28 03:58:14;;;;;;;;;;;;;;;9.06;99.67;100876.25;5068667;28;19951;-71
2023/12/28 04:09:48;;;;;;;;;;;;;;;9.07;98.94;100880.63;5069706;28;19928;-71
2023/12/28 05:42:32;;;;;;;;;;;;;;;9.23;93.32;100907.56;5055337;28;19935;-72
2023/12/28 05:57:33;;;;;;;;;;;;;;;9.18;92.81;100914.56;5050693;28;19924;-78
2023/12/28 06:09:08;;;;;;;;;;;;;;;9.40;91.21;100924.91;5043276;28;20376;-74
2023/12/28 06:29:50;;;;;;;;;;;;;;;9.56;91.50;100941.38;5054603;28;19931;-71
2023/12/28 06:38:21;;;;;;;;;;;;;;;9.54;91.13;100947.50;5047522;28;20494;-73
2023/12/28 07:13:01;;;;;;;;;;;;;;;9.16;91.84;100968.59;5071356;28;19932;-72
2023/12/28 07:15:26;;;;;;;;;;;;;;;9.16;91.84;100973.81;5055152;28;19917;-71
2023/12/28 07:17:51;;;;;;;;;;;;;;;9.11;92.23;100976.47;5029044;28;19977;-70
2023/12/28 07:20:17;;;;;;;;;;;;;;;9.07;92.14;100981.72;5040060;28;20034;-71
2023/12/28 07:22:43;;;;;;;;;;;;;;;9.10;92.26;100989.53;5026194;28;20372;-72
2023/12/28 07:25:08;;;;;;;;;;;;;;;9.12;92.17;100986.06;5038022;28;20073;-70
2023/12/28 07:27:34;;;;;;;;;;;;;;;9.17;91.86;100988.63;5022381;28;20427;-70
2023/12/28 07:30:00;;;;;;;;;;;;;;;9.16;92.10;101000.81;5051540;28;20291;-71
2023/12/28 07:32:28;;;;;;;;;;;;;;;9.15;92.40;101006.06;5038139;28;19924;-70
2023/12/28 07:34:53;;;;;;;;;;;;;;;9.17;92.33;101004.31;5052994;28;19916;-71
2023/12/28 07:37:18;;;;;;;;;;;;;;;9.15;92.54;101013.91;5052643;28;20261;-71
2023/12/28 07:39:44;;;;;;;;;;;;;;;9.17;92.60;101007.81;5064973;28;20420;-70
2023/12/28 07:42:09;;;;;;;;;;;;;;;9.21;92.75;101013.91;5054669;28;19932;-72
2023/12/28 07:44:35;;;;;;;;;;;;;;;9.26;92.25;101001.66;5025460;28;20288;-72
2023/12/28 07:47:06;;;;;;;;;;;;;;;9.25;92.72;101020.88;5071721;28;19936;-70
2023/12/28 07:49:31;;;;;;;;;;;;;;;9.23;92.72;101006.91;5066817;28;19927;-72
2023/12/28 07:51:57;;;;;;;;;;;;;;;9.22;93.23;101020.00;5037318;28;19928;-71
2023/12/28 07:54:22;;;;;;;;;;;;;;;9.18;93.25;101030.47;5036635;28;20057;-71
2023/12/28 07:56:47;;;;;;;;;;;;;;;9.23;92.74;101029.59;5047955;28;19924;-71
2023/12/28 07:59:12;;;;;;;;;;;;;;;9.27;92.70;101026.09;5056741;28;20265;-69
2023/12/28 08:01:38;;;;;;;;;;;;;;;9.28;93.07;101027.81;5053744;28;20612;-71
2023/12/28 08:04:03;;;;;;;;;;;;;;;9.35;92.46;101027.81;5071971;28;19916;-71
2023/12/28 08:06:32;;;;;;;;;;;;;;;9.36;92.63;101039.13;5055212;28;19955;-71
2023/12/28 08:08:59;;;;;;;;;;;;;;;9.39;92.70;101038.25;5050042;28;19943;-70
2023/12/28 08:11:24;;;;;;;;;;;;;;;9.43;92.45;101039.97;5053398;28;19916;-70
2023/12/28 08:13:50;;;;;;;;;;;;;;;9.56;91.83;101046.91;5060994;28;19916;-73
2023/12/28 08:16:15;;;;;;;;;;;;;;;9.47;92.25;101037.34;5049235;28;19916;-71
2023/12/28 08:18:40;;;;;;;;;;;;;;;9.46;92.58;101029.50;5073239;28;19912;-70
2023/12/28 08:21:05;;;;;;;;;;;;;;;9.51;92.37;101038.19;5062223;28;20023;-77
2023/12/28 08:23:31;;;;;;;;;;;;;;;9.49;92.41;101051.28;5033150;28;20641;-72
2023/12/28 08:25:57;;;;;;;;;;;;;;;9.53;92.40;101036.44;5051370;28;19954;-71
2023/12/28 08:28:23;;;;;;;;;;;;;;;9.57;92.22;101042.53;5053478;28;19980;-71
2023/12/28 08:30:48;;;;;;;;;;;;;;;9.61;91.56;101042.53;5037716;28;19960;-71
2023/12/28 08:33:14;;;;;;;;;;;;;;;9.65;91.78;101039.00;5052109;28;19955;-70
2023/12/28 08:35:39;;;;;;;;;;;;;;;9.57;92.34;101040.78;5063235;28;19927;-70
2023/12/28 08:38:06;;;;;;;;;;;;;;;9.63;92.10;101039.91;5046290;28;19950;-71
2023/12/28 08:40:31;;;;;;;;;;;;;;;9.61;92.22;101039.91;5050852;28;20023;-80
2023/12/28 08:42:57;;;;;;;;;;;;;;;9.70;91.71;101042.47;5052551;28;20348;-76
2023/12/28 08:45:23;;;;;;;;;;;;;;;9.71;91.75;101043.31;5052453;28;19955;-77
2023/12/28 08:47:48;;;;;;;;;;;;;;;9.71;91.90;101045.94;5047894;28;19925;-79
2023/12/28 08:50:14;;;;;;;;;;;;;;;9.71;91.81;101057.28;5028737;28;19927;-78
2023/12/28 08:52:39;;;;;;;;;;;;;;;9.78;90.62;101054.63;5040355;28;20292;-78
2023/12/28 08:55:05;;;;;;;;;;;;;;;9.76;91.29;101059.88;5045299;28;19932;-79
2023/12/28 08:57:31;;;;;;;;;;;;;;;9.76;91.45;101059.88;5030349;28;19921;-78
2023/12/28 08:59:56;;;;;;;;;;;;;;;9.83;91.46;101065.97;5056954;28;19913;-79
2023/12/28 09:02:21;;;;;;;;;;;;;;;9.86;91.29;101071.19;5035300;28;19925;-77
2023/12/28 09:04:47;;;;;;;;;;;;;;;9.86;90.89;101069.44;5032187;28;19925;-79
2023/12/28 09:07:13;;;;;;;;;;;;;;;9.86;90.98;101086.88;5036689;28;20374;-79
2023/12/28 09:09:38;;;;;;;;;;;;;;;9.88;91.15;101092.97;5050759;28;19927;-79
2023/12/28 09:12:04;;;;;;;;;;;;;;;9.83;90.29;101086.91;5050666;28;19950;-79
2023/12/28 09:14:31;;;;;;;;;;;;;;;9.83;89.99;101094.75;5041876;28;19927;-78
2023/12/28 09:16:59;;;;;;;;;;;;;;;9.77;90.94;101087.81;5048940;28;19917;-79
2023/12/28 09:19:25;;;;;;;;;;;;;;;9.81;90.80;101093.88;5032736;28;19994;-78
2023/12/28 09:21:50;;;;;;;;;;;;;;;9.79;90.97;101100.88;5050797;28;19962;-76
2023/12/28 09:24:18;;;;;;;;;;;;;;;9.79;90.89;101106.13;5055662;28;20503;-78
2023/12/28 09:26:43;;;;;;;;;;;;;;;9.78;90.83;101099.13;5030697;28;20296;-77
2023/12/28 09:29:09;;;;;;;;;;;;;;;9.77;91.27;101092.16;5042800;28;19916;-72
2023/12/28 09:31:34;;;;;;;;;;;;;;;9.84;90.52;101093.84;5049800;28;19932;-77
2023/12/28 09:33:59;;;;;;;;;;;;;;;9.82;90.80;101095.63;5032918;28;19932;-76
2023/12/28 09:36:27;;;;;;;;;;;;;;;9.81;91.03;101104.34;5048127;28;19931;-72
2023/12/28 09:38:52;;;;;;;;;;;;;;;9.86;90.17;101113.06;5051536;28;19920;-75
2023/12/28 09:41:21;;;;;;;;;;;;;;;9.84;90.05;101117.41;5033109;28;19928;-69
2023/12/28 09:43:54;;;;;;;;;;;;;;;9.83;90.41;101121.78;5050804;28;19916;-71
2023/12/28 09:46:19;;;;;;;;;;;;;;;9.84;89.94;101109.56;5048727;28;19916;-72
2023/12/28 09:48:45;;;;;;;;;;;;;;;9.84;89.91;101123.53;5042811;28;20038;-72
2023/12/28 09:51:10;;;;;;;;;;;;;;;9.83;90.20;101123.56;5027742;28;19924;-71
2023/12/28 09:53:37;;;;;;;;;;;;;;;9.90;89.66;101125.25;5034962;28;19967;-70
2023/12/28 09:56:02;;;;;;;;;;;;;;;9.88;89.21;101137.47;5049909;28;19977;-70
2023/12/28 09:58:29;;;;;;;;;;;;;;;9.85;89.30;101138.34;5065889;28;20008;-78
2023/12/28 10:00:54;;;;;;;;;;;;;;;9.86;89.94;101144.47;5051260;28;19956;-77
2023/12/28 10:03:20;;;;;;;;;;;;;;;9.87;88.98;101141.00;5027996;28;19979;-79
2023/12/28 10:05:46;;;;;;;;;;;;;;;9.87;90.28;101141.84;5021449;28;19928;-71
2023/12/28 10:08:13;;;;;;;;;;;;;;;9.89;90.27;101137.47;5007954;28;19964;-69
2023/12/28 10:10:38;;;;;;;;;;;;;;;9.91;89.37;101140.06;5031615;28;19924;-71
2023/12/28 10:13:03;;;;;;;;;;;;;;;9.92;89.52;101144.44;5021009;28;20339;-72
2023/12/28 10:15:30;;;;;;;;;;;;;;;9.91;89.16;101147.06;5029205;28;19925;-71
2023/12/28 10:17:56;;;;;;;;;;;;;;;9.89;89.11;101147.06;5029849;28;19967;-79
2023/12/28 10:20:21;;;;;;;;;;;;;;;9.90;90.17;101146.22;5030892;28;20345;-71
2023/12/28 10:22:47;;;;;;;;;;;;;;;9.91;90.17;101141.84;5028995;28;20222;-70
2023/12/28 10:25:12;;;;;;;;;;;;;;;9.98;89.61;101154.88;5025033;28;19920;-71
2023/12/28 10:27:43;;;;;;;;;;;;;;;9.99;89.45;101137.44;5012745;28;19924;-71
2023/12/28 10:30:10;;;;;;;;;;;;;;;10.01;89.21;101136.56;5028722;28;19932;-70
2023/12/28 10:32:35;;;;;;;;;;;;;;;10.04;89.52;101139.16;5013373;28;19925;-72
2023/12/28 10:35:01;;;;;;;;;;;;;;;10.03;89.62;101132.19;5033773;28;19943;-71
2023/12/28 10:37:26;;;;;;;;;;;;;;;10.03;90.12;101137.41;5028971;28;19927;-71
2023/12/28 10:39:53;;;;;;;;;;;;;;;10.05;89.29;101130.41;5026088;28;19924;-71
2023/12/28 10:42:27;;;;;;;;;;;;;;;10.06;89.30;101124.31;5041367;28;19927;-70
2023/12/28 10:44:53;;;;;;;;;;;;;;;10.11;89.21;101121.66;5021002;28;19917;-78
2023/12/28 10:47:19;;;;;;;;;;;;;;;10.13;89.01;101127.78;5034724;28;19947;-81
2023/12/28 10:49:48;;;;;;;;;;;;;;;10.15;89.69;101136.47;5030238;28;19925;-80
2023/12/28 10:52:16;;;;;;;;;;;;;;;10.21;88.19;101138.19;5050254;28;19917;-80
2023/12/28 10:54:45;;;;;;;;;;;;;;;10.29;88.21;101107.59;5069924;28;20310;-79
2023/12/28 10:57:24;;;;;;;;;;;;;;;10.33;87.24;101122.41;5067103;28;19973;-79
2023/12/28 10:59:55;;;;;;;;;;;;;;;10.37;87.89;101121.56;5050786;28;19917;-81
2023/12/28 11:02:21;;;;;;;;;;;;;;;10.45;87.02;101124.13;5054920;28;20426;-79
2023/12/28 11:04:52;;;;;;;;;;;;;;;10.64;87.03;101127.47;5063597;28;19916;-81
2023/12/28 11:07:18;;;;;;;;;;;;;;;10.87;86.19;101113.31;5039098;28;20498;-77
2023/12/28 11:09:44;;;;;;;;;;;;;;;11.00;86.15;101116.69;5052602;28;20007;-80
2023/12/28 11:12:10;;;;;;;;;;;;;;;11.05;83.92;101105.28;5025412;28;20265;-79
2023/12/28 11:14:35;;;;;;;;;;;;;;;11.12;84.56;101110.47;5053525;28;19921;-71
2023/12/28 11:17:01;;;;;;;;;;;;;;;11.27;84.87;101105.91;5051874;28;19913;-77
2023/12/28 11:19:28;;;;;;;;;;;;;;;11.46;84.23;101110.13;5038934;28;20019;-77
2023/12/28 11:21:56;;;;;;;;;;;;;;;11.40;83.37;101101.41;5052572;28;20399;-80
2023/12/28 11:24:21;;;;;;;;;;;;;;;11.51;82.63;101097.81;5035970;28;20447;-79
2023/12/28 11:26:52;;;;;;;;;;;;;;;11.76;82.26;101101.88;5049718;28;20031;-76
2023/12/28 11:29:18;;;;;;;;;;;;;;;11.69;82.66;101087.06;5067797;28;19943;-79
2023/12/28 11:31:44;;;;;;;;;;;;;;;11.50;81.78;101099.56;5050365;28;20325;-75
2023/12/28 11:34:17;;;;;;;;;;;;;;;11.34;81.74;101092.75;5052519;28;19968;-80
2023/12/28 11:36:54;;;;;;;;;;;;;;;11.31;83.21;101093.66;5049737;28;19923;-81
2023/12/28 11:39:31;;;;;;;;;;;;;;;11.23;83.84;101085.00;5052000;28;19917;-81
2023/12/28 11:42:05;;;;;;;;;;;;;;;11.30;83.93;101077.94;5050587;28;19920;-81
2023/12/28 11:44:31;;;;;;;;;;;;;;;11.41;81.88;101081.31;5053158;28;19927;-78
2023/12/28 11:46:57;;;;;;;;;;;;;;;11.53;82.08;101077.66;5036217;28;19959;-77
2023/12/28 11:49:27;;;;;;;;;;;;;;;11.47;82.69;101075.97;5042534;28;20372;-73
2023/12/28 11:51:56;;;;;;;;;;;;;;;11.43;81.33;101066.41;5044054;28;19921;-81
2023/12/28 11:54:22;;;;;;;;;;;;;;;11.39;82.55;101072.56;5053139;28;19964;-80
2023/12/28 11:56:47;;;;;;;;;;;;;;;11.32;81.79;101070.91;5064437;28;19984;-77
2023/12/28 11:59:12;;;;;;;;;;;;;;;11.19;81.94;101065.81;5046453;28;19979;-78
2023/12/28 12:01:37;;;;;;;;;;;;;;;11.12;83.01;101058.88;5037937;28;19920;-79
2023/12/28 12:04:03;;;;;;;;;;;;;;;11.01;82.90;101066.84;5065482;28;19917;-74
2023/12/28 12:06:28;;;;;;;;;;;;;;;10.98;83.27;101069.50;5037455;28;20509;-72
2023/12/28 12:08:54;;;;;;;;;;;;;;;10.92;83.42;101053.84;5031915;28;19933;-74
2023/12/28 12:11:19;;;;;;;;;;;;;;;10.81;83.38;101048.69;5048788;28;19928;-74
2023/12/28 12:13:50;;;;;;;;;;;;;;;10.76;84.09;101050.50;5064562;28;20039;-74
2023/12/28 12:16:15;;;;;;;;;;;;;;;10.73;84.02;101046.16;5070022;28;19927;-73
2023/12/28 12:18:42;;;;;;;;;;;;;;;10.75;82.64;101049.63;5037235;28;19920;-74
2023/12/28 12:21:07;;;;;;;;;;;;;;;10.62;84.85;101055.84;5059044;28;19959;-74
2023/12/28 12:23:35;;;;;;;;;;;;;;;10.63;84.58;101057.59;5062425;28;19959;-72
2023/12/28 12:26:00;;;;;;;;;;;;;;;10.65;84.78;101057.59;5057448;28;19921;-72
2023/12/28 12:28:25;;;;;;;;;;;;;;;10.61;84.76;101046.25;5061550;28;19927;-73
2023/12/28 12:30:55;;;;;;;;;;;;;;;10.60;84.58;101044.50;5036238;28;20265;-73
2023/12/28 12:33:23;;;;;;;;;;;;;;;10.62;85.14;101037.50;5066282;28;20393;-78
2023/12/28 12:35:49;;;;;;;;;;;;;;;10.62;85.36;101032.28;5059061;28;19920;-78
2023/12/28 12:38:14;;;;;;;;;;;;;;;10.58;84.83;101026.19;5048108;28;19970;-77
2023/12/28 12:40:39;;;;;;;;;;;;;;;10.61;84.09;101034.91;5033184;28;19925;-76
2023/12/28 12:43:08;;;;;;;;;;;;;;;10.60;84.44;101034.03;5044556;28;19924;-75
2023/12/28 12:45:36;;;;;;;;;;;;;;;10.49;84.97;101031.50;5053101;28;20417;-76
2023/12/28 12:48:02;;;;;;;;;;;;;;;10.45;85.63;101026.31;5049470;28;19916;-79
2023/12/28 12:50:27;;;;;;;;;;;;;;;10.43;85.71;101030.69;5050597;28;20433;-78
2023/12/28 12:52:53;;;;;;;;;;;;;;;10.42;86.10;101021.09;5048342;28;20027;-79
2023/12/28 12:55:18;;;;;;;;;;;;;;;10.40;86.04;101028.94;5031694;28;19963;-80
2023/12/28 12:57:43;;;;;;;;;;;;;;;10.37;85.86;101027.25;5026595;28;19928;-72
2023/12/28 13:00:09;;;;;;;;;;;;;;;10.38;86.69;101031.59;5028591;28;19924;-73
2023/12/28 13:02:40;;;;;;;;;;;;;;;10.39;86.47;101022.00;5053049;28;20019;-73
2023/12/28 13:05:05;;;;;;;;;;;;;;;10.38;86.47;101018.47;5063958;28;19920;-72
2023/12/28 13:07:31;;;;;;;;;;;;;;;10.39;85.86;101017.63;5032098;28;19932;-73
2023/12/28 13:09:56;;;;;;;;;;;;;;;10.36;86.21;101025.50;5031448;28;19943;-73
2023/12/28 13:12:22;;;;;;;;;;;;;;;10.35;87.19;101023.75;5049542;28;19916;-74
2023/12/28 13:14:47;;;;;;;;;;;;;;;10.37;87.34;101013.25;5044991;28;19921;-72
2023/12/28 13:17:12;;;;;;;;;;;;;;;10.41;86.92;101014.97;5052024;28;20391;-73
2023/12/28 13:19:38;;;;;;;;;;;;;;;10.39;86.75;101014.13;5044877;28;20296;-71
2023/12/28 13:22:04;;;;;;;;;;;;;;;10.40;86.77;101010.59;5045930;28;20215;-72
2023/12/28 13:24:30;;;;;;;;;;;;;;;10.36;87.01;101009.78;5030280;28;19935;-73
2023/12/28 13:26:55;;;;;;;;;;;;;;;10.38;87.32;101004.53;5030254;28;20299;-72
2023/12/28 13:29:20;;;;;;;;;;;;;;;10.38;87.59;101008.00;5044425;28;19924;-73
2023/12/28 13:31:50;;;;;;;;;;;;;;;10.39;86.77;101004.50;5045244;28;19928;-74
2023/12/28 13:34:15;;;;;;;;;;;;;;;10.42;86.88;101003.63;5043394;28;19976;-73
2023/12/28 13:36:40;;;;;;;;;;;;;;;10.41;86.60;101001.88;5051705;28;20398;-77
2023/12/28 13:39:06;;;;;;;;;;;;;;;10.42;87.16;101008.00;5046969;28;20256;-73
2023/12/28 13:41:31;;;;;;;;;;;;;;;10.40;87.41;101006.25;5030785;28;19959;-73
2023/12/28 13:44:01;;;;;;;;;;;;;;;10.43;87.63;100999.25;5031802;28;19916;-80
2023/12/28 13:46:27;;;;;;;;;;;;;;;10.45;86.62;100987.88;5051322;28;19939;-76
2023/12/28 13:48:56;;;;;;;;;;;;;;;10.52;86.43;100996.56;5035603;28;19928;-75
2023/12/28 13:51:22;;;;;;;;;;;;;;;10.49;86.64;100986.97;5052504;28;19921;-74
2023/12/28 13:53:47;;;;;;;;;;;;;;;10.46;86.53;100994.88;5033911;28;19971;-76
2023/12/28 13:56:12;;;;;;;;;;;;;;;10.48;86.77;100994.84;5022742;28;19921;-79
2023/12/28 13:58:38;;;;;;;;;;;;;;;10.44;87.45;101001.00;5038179;28;19921;-77
2023/12/28 14:01:03;;;;;;;;;;;;;;;10.40;86.97;101000.13;5051747;28;20288;-73
2023/12/28 14:03:28;;;;;;;;;;;;;;;10.44;87.08;101009.72;5064221;28;19924;-73
2023/12/28 14:05:54;;;;;;;;;;;;;;;10.36;87.61;100998.44;5051499;28;20442;-73
2023/12/28 14:08:19;;;;;;;;;;;;;;;10.33;88.02;100999.31;5029775;28;19936;-80
2023/12/28 14:10:44;;;;;;;;;;;;;;;10.32;88.13;100994.94;5035136;28;19973;-77
2023/12/28 14:13:10;;;;;;;;;;;;;;;10.30;87.83;101003.69;5059636;28;20058;-79
2023/12/28 14:15:35;;;;;;;;;;;;;;;10.28;87.88;101001.06;5056113;28;19924;-73
2023/12/28 14:18:00;;;;;;;;;;;;;;;10.24;87.94;101004.59;5049260;28;19947;-78
2023/12/28 14:20:27;;;;;;;;;;;;;;;10.20;88.25;100997.63;5034422;28;19932;-79
2023/12/28 14:22:53;;;;;;;;;;;;;;;10.17;88.60;101009.03;5046220;28;19920;-73
2023/12/28 14:25:18;;;;;;;;;;;;;;;10.13;88.40;101012.53;5036899;28;19927;-76
2023/12/28 14:27:44;;;;;;;;;;;;;;;10.14;88.33;101008.16;5048688;28;19929;-80
2023/12/28 14:30:10;;;;;;;;;;;;;;;10.10;88.72;101006.44;5039518;28;19969;-71
2023/12/28 14:32:36;;;;;;;;;;;;;;;10.14;87.71;100997.69;5056242;28;20402;-73
2023/12/28 14:35:01;;;;;;;;;;;;;;;10.14;87.90;100998.59;5055489;28;19916;-74
2023/12/28 14:37:27;;;;;;;;;;;;;;;10.15;87.55;101000.31;5053887;28;19963;-73
2023/12/28 14:39:52;;;;;;;;;;;;;;;10.12;86.43;100995.09;5068435;28;19967;-81
2023/12/28 14:42:18;;;;;;;;;;;;;;;10.13;86.67;100980.22;5042026;28;19928;-73
2023/12/28 14:44:43;;;;;;;;;;;;;;;10.17;86.09;100992.44;5054966;28;19916;-78
2023/12/28 14:47:08;;;;;;;;;;;;;;;10.10;86.88;101009.06;5055929;28;19924;-78
2023/12/28 14:49:34;;;;;;;;;;;;;;;10.13;86.31;100995.94;5061331;28;20269;-80
2023/12/28 14:51:59;;;;;;;;;;;;;;;10.15;85.82;100989.81;5050890;28;20019;-79
2023/12/28 14:54:25;;;;;;;;;;;;;;;10.17;85.71;100992.44;5037618;28;19924;-82
2023/12/28 14:56:50;;;;;;;;;;;;;;;10.22;84.73;100982.81;5050842;28;19912;-80
2023/12/28 14:59:15;;;;;;;;;;;;;;;10.13;84.92;100990.72;5049538;28;19921;-79
2023/12/28 15:01:41;;;;;;;;;;;;;;;10.13;85.59;100977.63;5051970;28;19939;-76
2023/12/28 15:04:06;;;;;;;;;;;;;;;10.20;83.76;100972.34;5036156;28;20311;-76
2023/12/28 15:06:32;;;;;;;;;;;;;;;10.09;85.26;100973.31;5054906;28;20575;-79
2023/12/28 15:08:57;;;;;;;;;;;;;;;10.06;84.71;100977.69;5050382;28;20065;-80
2023/12/28 15:11:22;;;;;;;;;;;;;;;10.00;85.62;100972.50;5037291;28;20250;-80
2023/12/28 15:13:48;;;;;;;;;;;;;;;10.01;85.34;100971.63;5059674;28;19956;-79
2023/12/28 15:16:14;;;;;;;;;;;;;;;9.95;85.37;100976.03;5069495;28;19958;-78
2023/12/28 15:18:40;;;;;;;;;;;;;;;9.95;85.42;100969.03;5050654;28;20353;-80
2023/12/28 15:21:06;;;;;;;;;;;;;;;9.91;85.73;100972.53;5049083;28;20366;-78
2023/12/28 15:23:31;;;;;;;;;;;;;;;9.90;85.56;100968.22;5063866;28;20019;-79
2023/12/28 15:25:57;;;;;;;;;;;;;;;9.86;86.40;100961.25;5032348;28;19974;-79
2023/12/28 15:28:23;;;;;;;;;;;;;;;9.91;86.17;100964.69;5049470;28;19936;-80
2023/12/28 15:30:48;;;;;;;;;;;;;;;9.78;86.89;100960.44;5050712;28;19924;-79
2023/12/28 15:33:14;;;;;;;;;;;;;;;9.76;86.67;100959.59;5049151;28;19928;-72
2023/12/28 15:35:39;;;;;;;;;;;;;;;9.75;86.33;100958.69;5043245;28;20354;-70
2023/12/28 15:38:05;;;;;;;;;;;;;;;9.75;86.19;100968.31;5049315;28;20019;-73
2023/12/28 15:40:30;;;;;;;;;;;;;;;9.76;85.35;100954.34;5058927;28;19921;-71
2023/12/28 15:42:58;;;;;;;;;;;;;;;9.75;85.45;100952.59;5046313;28;19924;-74
2023/12/28 15:45:23;;;;;;;;;;;;;;;9.67;86.28;100955.28;5061023;28;19916;-72
2023/12/28 15:47:50;;;;;;;;;;;;;;;9.66;86.62;100964.84;5063048;28;20408;-72
2023/12/28 15:50:15;;;;;;;;;;;;;;;9.59;86.21;100955.31;5036830;28;19924;-81
2023/12/28 15:52:40;;;;;;;;;;;;;;;9.58;86.63;100960.53;5049412;28;19927;-79
2023/12/28 15:55:06;;;;;;;;;;;;;;;9.60;86.16;100967.50;5034296;28;19921;-76
2023/12/28 15:57:31;;;;;;;;;;;;;;;9.57;86.67;100961.41;5033044;28;19927;-81
2023/12/28 16:00:00;;;;;;;;;;;;;;;9.52;86.72;100944.03;5036423;28;20360;-78
2023/12/28 16:02:26;;;;;;;;;;;;;;;9.57;86.35;100950.94;5051199;28;20295;-79
2023/12/28 16:04:52;;;;;;;;;;;;;;;9.58;85.94;100947.47;5070355;28;19920;-80
2023/12/28 16:07:17;;;;;;;;;;;;;;;9.58;86.23;100953.56;5049310;28;19974;-79
2023/12/28 16:09:42;;;;;;;;;;;;;;;9.65;85.94;100942.19;5034455;28;20004;-81
2023/12/28 16:12:09;;;;;;;;;;;;;;;9.66;86.00;100940.44;5045272;28;19935;-80
2023/12/28 16:14:35;;;;;;;;;;;;;;;9.64;86.12;100937.84;5033962;28;19924;-80
2023/12/28 16:17:01;;;;;;;;;;;;;;;9.69;85.73;100946.50;5054981;28;19913;-78
2023/12/28 16:19:27;;;;;;;;;;;;;;;9.74;84.92;100948.22;5050337;28;19924;-78
2023/12/28 16:21:52;;;;;;;;;;;;;;;9.73;85.35;100943.91;5067558;28;19917;-78
2023/12/28 16:24:18;;;;;;;;;;;;;;;9.73;85.74;100943.91;5031452;28;19928;-80
2023/12/28 16:26:43;;;;;;;;;;;;;;;9.64;85.86;100943.06;5053680;28;19925;-80
2023/12/28 16:29:08;;;;;;;;;;;;;;;9.58;85.97;100935.25;5059455;28;19925;-72
2023/12/28 16:31:34;;;;;;;;;;;;;;;9.61;85.79;100940.47;5057496;28;19921;-72
2023/12/28 16:34:00;;;;;;;;;;;;;;;9.62;85.14;100930.88;5027162;28;19956;-73
2023/12/28 16:36:25;;;;;;;;;;;;;;;9.57;85.97;100938.75;5039490;28;20284;-73
2023/12/28 16:38:51;;;;;;;;;;;;;;;9.56;85.74;100937.00;5053431;28;19942;-73
2023/12/28 16:41:17;;;;;;;;;;;;;;;9.64;85.20;100939.56;5045039;28;19931;-70
2023/12/28 16:43:42;;;;;;;;;;;;;;;9.55;85.59;100935.25;5049953;28;20019;-72
2023/12/28 16:46:07;;;;;;;;;;;;;;;9.51;86.02;100933.53;5021431;28;20277;-72
2023/12/28 16:48:34;;;;;;;;;;;;;;;9.48;86.37;100933.56;5055108;28;19916;-73
2023/12/28 16:51:01;;;;;;;;;;;;;;;9.44;86.32;100924.88;5051643;28;19916;-73
2023/12/28 16:53:28;;;;;;;;;;;;;;;9.47;86.45;100934.47;5049371;28;19916;-71
2023/12/28 16:55:53;;;;;;;;;;;;;;;9.46;86.39;100935.34;5037819;28;19917;-71
2023/12/28 16:58:19;;;;;;;;;;;;;;;9.48;85.32;100933.56;5032517;28;19923;-72
2023/12/28 17:00:44;;;;;;;;;;;;;;;9.43;85.55;100925.75;5044420;28;19924;-71
2023/12/28 17:03:09;;;;;;;;;;;;;;;9.45;85.72;100929.25;5054380;28;19929;-73
2023/12/28 17:05:35;;;;;;;;;;;;;;;9.43;85.87;100940.59;5051409;28;19924;-73
2023/12/28 17:08:00;;;;;;;;;;;;;;;9.37;86.40;100928.41;5039463;28;20002;-72
2023/12/28 17:10:26;;;;;;;;;;;;;;;9.40;85.97;100933.63;5044446;28;19959;-70
2023/12/28 17:12:52;;;;;;;;;;;;;;;9.42;86.01;100923.16;5049786;28;19955;-71
2023/12/28 17:15:17;;;;;;;;;;;;;;;9.41;86.05;100929.25;5047074;28;19923;-79
2023/12/28 17:17:43;;;;;;;;;;;;;;;9.44;86.04;100937.06;5036597;28;19912;-80
2023/12/28 17:20:09;;;;;;;;;;;;;;;9.45;85.50;100934.47;5062614;28;20052;-80
2023/12/28 17:22:45;;;;;;;;;;;;;;;9.42;86.13;100926.63;5054827;28;19954;-80
2023/12/28 17:25:13;;;;;;;;;;;;;;;9.34;86.40;100929.28;5066317;28;19924;-80
2023/12/28 17:27:42;;;;;;;;;;;;;;;9.29;86.54;100931.03;5059031;28;20368;-79
2023/12/28 17:30:13;;;;;;;;;;;;;;;9.45;85.84;100923.13;5053382;28;21868;-76
2023/12/28 17:32:39;;;;;;;;;;;;;;;9.40;86.27;100923.16;5053202;28;20288;-81
2023/12/28 17:35:05;;;;;;;;;;;;;;;9.50;85.23;100923.97;5053001;28;20019;-80
2023/12/28 17:37:30;;;;;;;;;;;;;;;9.48;85.25;100917.88;5063297;28;20396;-80
2023/12/28 17:39:56;;;;;;;;;;;;;;;9.47;85.81;100934.47;5049012;28;19913;-80
2023/12/28 17:42:28;;;;;;;;;;;;;;;9.48;85.53;100926.59;5052738;28;20396;-79
2023/12/28 17:44:55;;;;;;;;;;;;;;;9.45;85.87;100928.34;5061951;28;19927;-79
2023/12/28 17:47:26;;;;;;;;;;;;;;;9.49;85.40;100924.84;5049823;28;19929;-79
2023/12/28 17:49:51;;;;;;;;;;;;;;;9.46;86.36;100927.50;5050234;28;19913;-80
2023/12/28 17:52:17;;;;;;;;;;;;;;;9.50;86.17;100917.00;5055619;28;20172;-79
2023/12/28 17:54:42;;;;;;;;;;;;;;;9.57;84.79;100915.22;5050080;28;19921;-78
2023/12/28 17:57:07;;;;;;;;;;;;;;;9.56;85.31;100913.47;5047280;28;19923;-79
2023/12/28 17:59:33;;;;;;;;;;;;;;;9.58;85.38;100919.53;5031317;28;19921;-79
2023/12/28 18:01:58;;;;;;;;;;;;;;;9.57;85.58;100923.06;5029285;28;19925;-80
2023/12/28 18:04:24;;;;;;;;;;;;;;;9.54;85.71;100908.25;5034069;28;19925;-80
2023/12/28 18:06:52;;;;;;;;;;;;;;;9.52;85.97;100914.34;5039890;28;20106;-81
2023/12/28 18:09:21;;;;;;;;;;;;;;;9.49;86.08;100920.47;5033553;28;19924;-80
2023/12/28 18:11:46;;;;;;;;;;;;;;;9.52;86.05;100912.63;5045682;28;19920;-79
2023/12/28 18:14:11;;;;;;;;;;;;;;;9.56;86.04;100916.09;5050084;28;20036;-79
2023/12/28 18:16:37;;;;;;;;;;;;;;;9.61;85.72;100916.94;5047253;28;19916;-80
2023/12/28 18:19:04;;;;;;;;;;;;;;;9.64;85.11;100930.00;5039762;28;20674;-78
2023/12/28 18:21:29;;;;;;;;;;;;;;;9.77;84.13;100911.56;5050434;28;20274;-70
2023/12/28 18:23:54;;;;;;;;;;;;;;;9.65;84.53;100910.78;5051363;28;19928;-71
2023/12/28 18:26:20;;;;;;;;;;;;;;;9.60;85.57;100916.94;5033300;28;19978;-72
2023/12/28 18:28:45;;;;;;;;;;;;;;;9.56;85.69;100903.00;5069679;28;19964;-78
2023/12/28 18:31:12;;;;;;;;;;;;;;;9.61;85.37;100909.09;5047195;28;19923;-80
2023/12/28 18:33:38;;;;;;;;;;;;;;;9.61;85.12;100903.84;5043732;28;19960;-79
2023/12/28 18:36:03;;;;;;;;;;;;;;;9.68;84.46;100896.81;5036711;28;20020;-79
2023/12/28 18:38:29;;;;;;;;;;;;;;;9.62;84.79;100900.34;5044701;28;19963;-78
2023/12/28 18:40:54;;;;;;;;;;;;;;;9.61;85.00;100903.84;5027553;28;19920;-78
2023/12/28 18:43:20;;;;;;;;;;;;;;;9.83;83.71;100901.09;5047574;28;19925;-74
2023/12/28 18:45:45;;;;;;;;;;;;;;;9.68;84.56;100905.53;5044118;28;19988;-73
2023/12/28 18:48:12;;;;;;;;;;;;;;;9.65;85.03;100916.00;5019260;28;19971;-72
2023/12/28 18:50:38;;;;;;;;;;;;;;;9.61;85.31;100898.63;5048046;28;19928;-73
2023/12/28 18:53:05;;;;;;;;;;;;;;;9.64;85.00;100903.81;5040108;28;19928;-72
2023/12/28 18:55:30;;;;;;;;;;;;;;;9.57;85.51;100907.38;5046480;28;20304;-72
2023/12/28 18:57:55;;;;;;;;;;;;;;;9.57;86.05;100901.25;5035115;28;19918;-71